Time;durP1;ratioP1;P1;durP2;ratioP2;P2;SDS_P1;SDS_P2;PMS_P1;PMS_P2;Temp;Humidity;BMP_temperature;BMP_pressure;BME280_temperature;BME280_humidity;BME280_pressure;Samples;Min_cycle;Max_cycle;Signal;HPM_P1;HPM_P2
2022/11/22 00:00:33;;;;;;;;;4.50;2.50;;;;;9.19;64.43;98977.19;2101892;27;46191;-60
2022/11/22 00:01:33;;;;;;;;;6.50;5.50;;;;;9.19;64.60;98970.09;2100471;27;46792;-60
2022/11/22 00:02:34;;;;;;;;;1.75;1.75;;;;;9.21;64.38;98975.34;2103335;27;46486;-62
2022/11/22 00:03:35;;;;;;;;;3.50;3.50;;;;;9.20;64.37;98968.31;2107580;27;46925;-60
2022/11/22 00:04:35;;;;;;;;;6.50;4.25;;;;;9.18;64.61;98971.03;2102078;27;46121;-60
2022/11/22 00:05:36;;;;;;;;;3.00;3.00;;;;;9.17;64.61;98973.75;2093972;28;46531;-61
2022/11/22 00:06:36;;;;;;;;;1.75;1.00;;;;;9.16;64.39;98974.69;2092877;28;46661;-61
2022/11/22 00:07:37;;;;;;;;;2.25;2.00;;;;;9.15;64.55;98979.13;2106039;27;46255;-59
2022/11/22 00:08:37;;;;;;;;;0.50;0.50;;;;;9.16;64.63;98967.59;2105547;27;46856;-61
2022/11/22 00:09:38;;;;;;;;;2.33;2.33;;;;;9.16;64.44;98961.47;2108722;27;45047;-60
2022/11/22 00:10:38;;;;;;;;;3.00;3.00;;;;;9.16;64.61;98972.91;2106509;27;46776;-59
2022/11/22 00:11:38;;;;;;;;;4.00;4.00;;;;;9.16;64.51;98975.53;2104515;27;46591;-61
2022/11/22 00:12:39;;;;;;;;;2.00;2.00;;;;;9.18;64.85;98980.78;2103715;27;46698;-60
2022/11/22 00:13:40;;;;;;;;;2.00;2.00;;;;;9.18;64.89;98980.78;2104822;27;46658;-60
2022/11/22 00:14:40;;;;;;;;;1.00;1.00;;;;;9.19;64.44;98979.84;2101300;27;46779;-60
2022/11/22 00:15:40;;;;;;;;;4.00;4.00;;;;;9.18;64.60;98972.81;2106174;27;46605;-59
2022/11/22 00:16:41;;;;;;;;;2.00;2.00;;;;;9.19;64.56;98971.91;2104527;27;46859;-60
2022/11/22 00:17:41;;;;;;;;;2.67;2.00;;;;;9.17;64.52;98990.50;2105448;27;46499;-60
2022/11/22 00:18:41;;;;;;;;;2.00;2.00;;;;;9.14;64.34;98978.22;2104788;27;46615;-60
2022/11/22 00:19:42;;;;;;;;;3.25;2.75;;;;;9.13;64.70;98978.31;2099971;27;46418;-60
2022/11/22 00:20:42;;;;;;;;;2.75;2.00;;;;;9.13;64.47;98975.66;2101856;27;46765;-61
2022/11/22 00:21:42;;;;;;;;;1.33;1.33;;;;;9.12;64.77;98980.09;2089880;28;46301;-61
2022/11/22 00:22:43;;;;;;;;;3.00;3.00;;;;;9.15;64.62;98979.13;2086622;28;46755;-61
2022/11/22 00:23:44;;;;;;;;;1.33;1.33;;;;;9.14;64.58;98985.31;2106858;27;46259;-61
2022/11/22 00:24:45;;;;;;;;;2.33;2.33;;;;;9.16;64.41;98974.69;2097028;28;46809;-59
2022/11/22 00:25:45;;;;;;;;;2.25;2.25;;;;;9.15;64.56;98981.78;2096145;28;46754;-61
2022/11/22 00:26:45;;;;;;;;;2.50;2.00;;;;;9.16;64.60;98978.19;2104461;27;46218;-58
2022/11/22 00:27:46;;;;;;;;;4.00;4.00;;;;;9.16;64.37;98982.63;2102665;27;46400;-59
2022/11/22 00:28:46;;;;;;;;;3.00;3.00;;;;;9.14;64.82;98978.22;2103859;27;46552;-60
2022/11/22 00:29:46;;;;;;;;;3.75;3.75;;;;;9.14;64.60;98982.66;2104482;27;45605;-61
2022/11/22 00:30:47;;;;;;;;;5.00;3.50;;;;;9.14;64.86;98972.06;2103141;27;46242;-60
2022/11/22 00:31:47;;;;;;;;;2.00;2.00;;;;;9.14;64.73;98972.06;2097406;28;47225;-61
2022/11/22 00:32:47;;;;;;;;;0.67;0.67;;;;;9.16;64.76;98982.63;2095699;28;46441;-60
2022/11/22 00:33:48;;;;;;;;;1.00;1.00;;;;;9.16;64.67;98979.97;2097377;27;46135;-60
2022/11/22 00:34:48;;;;;;;;;2.33;1.00;;;;;9.17;64.81;98981.69;2101481;27;46406;-61
2022/11/22 00:35:48;;;;;;;;;2.00;2.00;;;;;9.16;65.16;98959.66;2105007;27;46348;-60
2022/11/22 00:36:49;;;;;;;;;1.33;1.00;;;;;9.17;64.46;98965.81;2103831;27;46179;-59
2022/11/22 00:37:49;;;;;;;;;7.50;5.25;;;;;9.15;64.75;98963.25;2103646;27;47056;-60
2022/11/22 00:38:49;;;;;;;;;2.00;2.00;;;;;9.16;64.57;98972.03;2095065;28;46195;-60
2022/11/22 00:39:50;;;;;;;;;2.67;2.00;;;;;9.14;64.44;98972.94;2097062;28;46783;-61
2022/11/22 00:40:50;;;;;;;;;2.67;1.00;;;;;9.13;64.59;98975.66;2104081;27;46956;-59
2022/11/22 00:41:51;;;;;;;;;2.00;2.00;;;;;9.12;64.58;98974.78;2104755;27;46746;-61
2022/11/22 00:42:51;;;;;;;;;3.00;3.00;;;;;9.12;64.43;98977.44;2104738;27;46765;-61
2022/11/22 00:43:51;;;;;;;;;1.00;1.00;;;;;9.11;64.61;98973.06;2103948;27;46315;-58
2022/11/22 00:44:52;;;;;;;;;2.00;1.00;;;;;9.11;64.93;98953.69;2103648;27;46244;-58
2022/11/22 00:45:52;;;;;;;;;2.00;2.00;;;;;9.11;64.68;98975.72;2104965;27;45921;-60
2022/11/22 00:46:52;;;;;;;;;2.33;2.33;;;;;9.10;64.56;98959.91;2104850;27;46340;-59
2022/11/22 00:47:53;;;;;;;;;4.67;3.00;;;;;9.10;64.62;98975.78;2103165;27;46003;-60
2022/11/22 00:48:53;;;;;;;;;4.00;4.00;;;;;9.09;64.62;98980.22;2109715;27;46381;-60
2022/11/22 00:49:53;;;;;;;;;5.00;3.67;;;;;9.08;64.61;98977.66;2104244;27;46341;-61
2022/11/22 00:50:54;;;;;;;;;3.00;3.00;;;;;9.08;64.56;98975.00;2103097;27;45464;-60
2022/11/22 00:51:55;;;;;;;;;2.00;2.00;;;;;9.05;64.68;98985.72;2100990;27;46868;-61
2022/11/22 00:52:55;;;;;;;;;1.00;1.00;;;;;9.04;64.63;98974.28;2103402;27;46723;-62
2022/11/22 00:53:55;;;;;;;;;2.33;2.00;;;;;9.04;64.74;98974.28;2078735;28;46245;-61
2022/11/22 00:54:56;;;;;;;;;1.33;1.33;;;;;9.03;64.56;98971.72;2075738;28;46181;-59
2022/11/22 00:55:56;;;;;;;;;2.67;2.00;;;;;9.03;64.80;98975.22;2104922;27;46102;-60
2022/11/22 00:56:56;;;;;;;;;1.67;1.67;;;;;9.03;64.66;98982.28;2104042;27;46279;-60
2022/11/22 00:57:57;;;;;;;;;2.67;2.67;;;;;9.02;64.65;98975.25;2104666;27;46199;-60
2022/11/22 00:58:57;;;;;;;;;2.00;1.00;;;;;9.02;64.72;98978.78;2105422;27;46291;-61
2022/11/22 00:59:58;;;;;;;;;2.67;2.00;;;;;9.05;64.83;98988.38;2104634;27;46636;-60
2022/11/22 01:00:58;;;;;;;;;3.00;2.00;;;;;9.07;64.77;98984.72;2103347;27;46480;-60
2022/11/22 01:01:58;;;;;;;;;2.00;2.00;;;;;9.07;64.72;98976.78;2098777;27;46635;-61
2022/11/22 01:02:59;;;;;;;;;2.00;1.67;;;;;9.07;64.63;98984.72;2100615;27;46654;-60
2022/11/22 01:03:59;;;;;;;;;1.00;1.00;;;;;9.06;64.68;98983.00;2096603;28;46293;-58
2022/11/22 01:05:00;;;;;;;;;1.67;1.67;;;;;9.08;64.82;98993.53;2097399;28;46705;-59
2022/11/22 01:06:00;;;;;;;;;1.67;1.33;;;;;9.07;64.80;98968.84;2104152;27;46692;-61
2022/11/22 01:07:00;;;;;;;;;3.67;3.67;;;;;9.08;64.61;98978.50;2105462;27;46531;-60
2022/11/22 01:08:01;;;;;;;;;3.00;1.00;;;;;9.07;64.70;98984.72;2104639;27;46684;-61
2022/11/22 01:09:01;;;;;;;;;2.00;2.00;;;;;9.07;64.72;98981.22;2102507;27;46074;-60
2022/11/22 01:10:01;;;;;;;;;1.33;1.00;;;;;9.09;64.33;98982.00;2085868;28;46305;-59
2022/11/22 01:11:02;;;;;;;;;2.00;2.00;;;;;9.08;64.61;98983.81;2086312;28;46326;-61
2022/11/22 01:12:03;;;;;;;;;3.00;2.67;;;;;9.08;64.65;98982.94;2104054;27;46603;-59
2022/11/22 01:13:03;;;;;;;;;1.33;1.33;;;;;9.09;64.64;98980.22;2103948;27;47081;-61
2022/11/22 01:14:06;;;;;;;;;1.75;1.75;;;;;9.10;64.82;98971.34;2102166;27;46852;-59
2022/11/22 01:15:07;;;;;;;;;4.75;1.50;;;;;9.11;64.60;98972.22;2108947;27;46973;-59
2022/11/22 01:16:10;;;;;;;;;1.00;1.00;;;;;9.11;64.67;98980.16;2109148;27;45895;-60
2022/11/22 01:17:10;;;;;;;;;2.00;1.75;;;;;9.11;64.66;98975.72;2112693;27;46673;-60
2022/11/22 01:18:10;;;;;;;;;1.00;1.00;;;;;9.10;64.68;98968.72;2089626;28;46747;-59
2022/11/22 01:19:11;;;;;;;;;2.00;0.00;;;;;9.11;64.58;98964.28;2097504;28;46477;-59
2022/11/22 01:20:12;;;;;;;;;1.00;1.00;;;;;9.13;64.70;98973.00;2096403;27;46182;-60
2022/11/22 01:21:12;;;;;;;;;1.67;1.67;;;;;9.14;64.72;98962.34;2106639;27;46597;-61
2022/11/22 01:22:12;;;;;;;;;2.00;2.00;;;;;9.16;64.64;98961.47;2103071;27;46676;-60
2022/11/22 01:23:13;;;;;;;;;4.00;3.00;;;;;9.16;64.25;98959.66;2106641;27;46044;-59
2022/11/22 01:24:13;;;;;;;;;1.00;1.00;;;;;9.19;64.58;98963.97;2100884;27;46702;-58
2022/11/22 01:25:14;;;;;;;;;3.33;2.00;;;;;9.20;64.55;98957.75;2106079;27;46706;-60
2022/11/22 01:26:14;;;;;;;;;1.67;1.67;;;;;9.19;64.53;98951.59;2098616;27;46666;-61
2022/11/22 01:27:14;;;;;;;;;1.67;1.67;;;;;9.20;64.63;98960.38;2084805;28;46347;-61
2022/11/22 01:28:16;;;;;;;;;2.00;2.00;;;;;9.19;64.22;98956.03;2084724;28;46202;-61
2022/11/22 01:29:16;;;;;;;;;1.00;1.00;;;;;9.17;64.28;98964.03;2103752;27;46990;-61
2022/11/22 01:30:17;;;;;;;;;1.00;1.00;;;;;9.18;64.35;98964.88;2103170;27;46131;-60
2022/11/22 01:31:17;;;;;;;;;2.00;2.00;;;;;9.13;64.37;98960.63;2105592;27;46430;-59
2022/11/22 01:32:17;;;;;;;;;3.00;2.00;;;;;9.13;64.57;98959.78;2102524;27;47167;-61
2022/11/22 01:33:19;;;;;;;;;1.33;1.00;;;;;9.12;64.60;98955.41;2105256;27;46628;-61
2022/11/22 01:34:19;;;;;;;;;4.75;3.00;;;;;9.10;64.64;98954.63;2097376;27;45276;-61
2022/11/22 01:35:20;;;;;;;;;2.67;2.00;;;;;9.09;64.50;98951.13;2106125;27;45946;-60
2022/11/22 01:36:20;;;;;;;;;3.00;3.00;;;;;9.10;64.35;98962.56;2103186;27;46169;-62
2022/11/22 01:37:20;;;;;;;;;1.00;1.00;;;;;9.09;64.60;98951.13;2109675;27;45436;-60
2022/11/22 01:38:21;;;;;;;;;1.33;1.33;;;;;9.09;64.44;98951.13;2103563;27;47082;-60
2022/11/22 01:39:21;;;;;;;;;2.00;2.00;;;;;9.09;64.60;98943.19;2105585;27;45839;-59
2022/11/22 01:40:21;;;;;;;;;1.33;1.00;;;;;9.10;64.52;98946.69;2082184;28;46657;-58
2022/11/22 01:41:22;;;;;;;;;2.67;1.67;;;;;9.10;64.62;98947.53;2088168;28;46552;-61
2022/11/22 01:42:22;;;;;;;;;1.00;0.67;;;;;9.11;64.52;98936.03;2102407;27;46255;-60
2022/11/22 01:43:25;;;;;;;;;2.00;2.00;;;;;9.12;64.68;98931.59;2104413;27;46769;-59
2022/11/22 01:44:29;;;;;;;;;2.00;2.00;;;;;9.11;64.53;98933.38;2101566;27;46791;-61
2022/11/22 01:45:29;;;;;;;;;2.25;1.50;;;;;9.11;64.67;98928.09;2106163;27;46727;-60
2022/11/22 01:46:36;;;;;;;;;2.00;2.00;;;;;9.12;64.56;98942.19;2101617;27;47235;-59
2022/11/22 01:47:37;;;;;;;;;1.75;1.75;;;;;9.12;64.47;98936.88;2105187;27;46504;-62
2022/11/22 01:48:52;;;;;;;;;1.00;1.00;;;;;9.11;64.67;98935.16;2101026;27;46210;-58
2022/11/22 01:49:59;;;;;;;;;1.50;1.50;;;;;9.10;64.51;98933.47;2102304;27;46516;-61
2022/11/22 01:51:17;;;;;;;;;1.50;1.00;;;;;9.10;64.40;98944.03;2102831;27;46543;-60
2022/11/22 01:52:20;;;;;;;;;3.25;2.25;;;;;9.08;64.63;98932.66;2102184;27;47296;-59
2022/11/22 01:53:29;;;;;;;;;1.00;1.00;;;;;9.09;64.54;98931.75;2103550;27;46911;-59
2022/11/22 01:54:34;;;;;;;;;0.75;0.75;;;;;9.09;64.72;98929.94;2103356;27;46633;-60
2022/11/22 01:55:35;;;;;;;;;3.00;1.00;;;;;9.08;64.45;98938.81;2104997;27;46765;-60
2022/11/22 01:56:38;;;;;;;;;0.75;0.75;;;;;9.10;64.63;98941.41;2103188;27;46368;-59
2022/11/22 01:57:41;;;;;;;;;2.00;1.00;;;;;9.11;64.58;98936.03;2108298;27;46579;-59
2022/11/22 01:58:45;;;;;;;;;2.00;0.25;;;;;9.11;64.42;98943.13;2092872;28;46536;-60
2022/11/22 01:59:52;;;;;;;;;1.50;1.50;;;;;9.10;64.58;98934.31;2095465;28;46641;-61
2022/11/22 02:00:54;;;;;;;;;2.00;1.75;;;;;9.11;64.68;98949.25;2103362;27;46597;-59
2022/11/22 02:01:55;;;;;;;;;1.00;1.00;;;;;9.11;64.60;98943.97;2098119;28;45992;-60
2022/11/22 02:02:59;;;;;;;;;1.00;1.00;;;;;9.10;64.55;98944.03;2102336;27;46538;-58
2022/11/22 02:04:03;;;;;;;;;2.00;2.00;;;;;9.10;64.71;98938.75;2100937;28;46396;-60
2022/11/22 02:05:08;;;;;;;;;1.00;1.00;;;;;9.09;64.54;98945.81;2104947;27;46800;-59
2022/11/22 02:06:09;;;;;;;;;1.75;1.75;;;;;9.09;64.68;98937.88;2096903;28;47025;-59
2022/11/22 02:07:22;;;;;;;;;1.00;1.00;;;;;9.09;64.98;98929.09;2105107;27;46347;-61
2022/11/22 02:08:38;;;;;;;;;3.00;1.25;;;;;9.08;64.83;98925.59;2103313;27;46555;-59
2022/11/22 02:09:41;;;;;;;;;3.00;2.00;;;;;9.10;65.12;98925.50;2107747;27;45518;-59
2022/11/22 02:10:45;;;;;;;;;1.00;1.00;;;;;9.10;65.10;98929.03;2104507;27;47052;-60
2022/11/22 02:11:49;;;;;;;;;1.25;1.00;;;;;9.10;65.02;98931.66;2104250;27;46919;-60
2022/11/22 02:12:52;;;;;;;;;1.00;1.00;;;;;9.12;65.01;98947.47;2102483;27;46781;-59
2022/11/22 02:13:53;;;;;;;;;1.25;1.25;;;;;9.12;65.22;98936.88;2102482;27;46924;-61
2022/11/22 02:14:54;;;;;;;;;3.75;2.00;;;;;9.13;65.01;98935.97;2102513;27;46380;-58
2022/11/22 02:15:55;;;;;;;;;2.00;1.75;;;;;9.14;65.06;98932.38;2099944;27;46736;-61
2022/11/22 02:16:56;;;;;;;;;2.67;2.67;;;;;9.15;65.15;98936.78;2077747;28;46277;-58
2022/11/22 02:17:56;;;;;;;;;2.00;1.67;;;;;9.14;64.95;98938.53;2079134;28;46204;-59
2022/11/22 02:18:57;;;;;;;;;1.00;1.00;;;;;9.14;64.95;98935.88;2104119;27;47260;-60
2022/11/22 02:19:57;;;;;;;;;1.00;1.00;;;;;9.14;64.92;98935.03;2098476;28;46760;-58
2022/11/22 02:20:58;;;;;;;;;2.00;2.00;;;;;9.13;65.19;98939.47;2102576;27;46354;-61
2022/11/22 02:22:09;;;;;;;;;3.00;1.67;;;;;9.13;64.94;98947.41;2085641;28;46220;-59
2022/11/22 02:23:16;;;;;;;;;3.00;2.00;;;;;9.13;65.02;98950.06;2086303;28;46531;-58
2022/11/22 02:24:25;;;;;;;;;3.00;2.00;;;;;9.13;65.18;98955.34;2099157;27;46185;-58
2022/11/22 02:25:40;;;;;;;;;0.50;0.50;;;;;9.12;65.08;98937.75;2103714;27;46502;-57
2022/11/22 02:26:41;;;;;;;;;1.00;0.00;;;;;9.12;65.15;98926.31;2100968;27;47033;-60
2022/11/22 02:27:42;;;;;;;;;4.00;3.00;;;;;9.11;64.94;98928.09;2103791;27;47104;-60
2022/11/22 02:28:42;;;;;;;;;1.00;1.00;;;;;9.11;65.10;98938.69;2101658;27;46514;-60
2022/11/22 02:29:43;;;;;;;;;3.00;3.00;;;;;9.12;65.03;98928.94;2104759;27;46428;-60
2022/11/22 02:30:43;;;;;;;;;1.00;1.00;;;;;9.11;65.01;98929.88;2104656;27;46937;-60
2022/11/22 02:31:45;;;;;;;;;2.00;1.00;;;;;9.09;65.19;98921.16;2111309;27;46753;-60
2022/11/22 02:32:46;;;;;;;;;1.50;1.50;;;;;9.08;65.07;98920.28;2102972;27;46632;-60
2022/11/22 02:33:46;;;;;;;;;2.67;1.67;;;;;9.06;65.14;98922.16;2103754;27;48217;-60
2022/11/22 02:34:48;;;;;;;;;1.00;1.00;;;;;9.06;65.20;98938.03;2102733;27;46820;-60
2022/11/22 02:35:49;;;;;;;;;2.00;2.00;;;;;9.05;65.33;98931.03;2104377;27;45604;-61
2022/11/22 02:36:52;;;;;;;;;0.00;0.00;;;;;9.05;65.29;98932.81;2102441;27;46786;-60
2022/11/22 02:37:57;;;;;;;;;1.00;1.00;;;;;9.03;65.28;98924.94;2102845;27;46775;-60
2022/11/22 02:38:57;;;;;;;;;1.00;1.00;;;;;9.03;65.22;98924.09;2104063;27;46797;-60
2022/11/22 02:40:05;;;;;;;;;2.00;2.00;;;;;9.01;65.28;98921.47;2105051;27;46217;-60
2022/11/22 02:41:10;;;;;;;;;2.00;1.75;;;;;9.01;65.31;98925.91;2102277;27;46440;-60
2022/11/22 02:42:11;;;;;;;;;1.50;1.50;;;;;8.99;65.54;98928.63;2101352;27;46840;-59
2022/11/22 02:43:20;;;;;;;;;1.00;1.00;;;;;8.98;65.53;98926.91;2104768;27;46413;-60
2022/11/22 02:44:21;;;;;;;;;1.00;1.00;;;;;8.97;65.59;98926.97;2100416;27;46877;-60
2022/11/22 02:45:22;;;;;;;;;1.25;1.25;;;;;8.96;65.61;98931.41;2104940;27;46521;-60
2022/11/22 02:46:22;;;;;;;;;2.00;2.00;;;;;8.96;65.52;98928.78;2102415;27;46346;-61
2022/11/22 02:47:22;;;;;;;;;2.00;1.00;;;;;8.97;65.67;98924.34;2104896;27;46828;-60
2022/11/22 02:48:23;;;;;;;;;3.33;2.00;;;;;8.96;65.48;98926.13;2103785;27;45537;-59
2022/11/22 02:49:24;;;;;;;;;2.00;2.00;;;;;8.97;65.58;98924.34;2103862;27;45595;-59
2022/11/22 02:50:24;;;;;;;;;1.00;1.00;;;;;8.97;65.71;98929.63;2098446;27;46694;-60
2022/11/22 02:51:25;;;;;;;;;2.00;2.00;;;;;8.96;65.73;98926.13;2105590;27;46743;-58
2022/11/22 02:52:25;;;;;;;;;1.00;1.00;;;;;8.96;65.51;98925.28;2104807;27;46255;-60
2022/11/22 02:53:29;;;;;;;;;2.67;1.67;;;;;8.95;65.83;98924.41;2103561;27;46837;-59
2022/11/22 02:54:29;;;;;;;;;1.25;1.25;;;;;8.96;65.75;98919.97;2098205;27;47074;-60
2022/11/22 02:55:30;;;;;;;;;1.00;0.67;;;;;8.95;65.79;98920.91;2106133;27;45938;-61
2022/11/22 02:56:30;;;;;;;;;0.67;0.67;;;;;8.96;65.74;98928.78;2101025;27;46411;-60
2022/11/22 02:57:31;;;;;;;;;1.00;1.00;;;;;8.96;65.83;98922.63;2107573;27;46642;-59
2022/11/22 02:58:31;;;;;;;;;2.00;2.00;;;;;8.95;65.75;98911.19;2103766;27;46951;-59
2022/11/22 02:59:32;;;;;;;;;1.67;1.67;;;;;8.95;65.91;98907.69;2106287;27;46262;-58
2022/11/22 03:00:34;;;;;;;;;0.00;0.00;;;;;8.95;65.73;98915.63;2101818;27;46613;-58
2022/11/22 03:01:35;;;;;;;;;2.00;1.00;;;;;8.95;65.63;98905.03;2104889;27;47777;-61
2022/11/22 03:02:35;;;;;;;;;2.67;2.67;;;;;8.94;65.87;98898.88;2101137;27;45478;-59
2022/11/22 03:03:36;;;;;;;;;2.00;0.00;;;;;8.96;65.85;98893.53;2100775;27;45649;-59
2022/11/22 03:04:36;;;;;;;;;0.67;0.00;;;;;8.95;65.82;98913.81;2100526;27;46304;-61
2022/11/22 03:05:36;;;;;;;;;1.00;1.00;;;;;8.95;65.99;98897.97;2102311;27;46788;-60
2022/11/22 03:06:36;;;;;;;;;0.67;0.67;;;;;8.95;65.90;98897.97;2104209;27;46486;-59
2022/11/22 03:07:37;;;;;;;;;2.00;2.00;;;;;8.96;66.03;98901.47;2105090;27;46481;-60
2022/11/22 03:08:37;;;;;;;;;1.00;1.00;;;;;8.97;65.99;98892.59;2094778;28;45607;-60
2022/11/22 03:09:38;;;;;;;;;1.00;1.00;;;;;8.98;66.16;98904.88;2090328;28;45276;-60
2022/11/22 03:10:38;;;;;;;;;1.33;0.00;;;;;8.98;66.06;98899.59;2094613;28;45915;-60
2022/11/22 03:11:38;;;;;;;;;0.67;0.67;;;;;8.99;65.99;98902.19;2105441;27;46042;-60
2022/11/22 03:12:38;;;;;;;;;3.67;1.67;;;;;8.99;65.95;98899.53;2104475;27;45560;-60
2022/11/22 03:13:39;;;;;;;;;1.00;0.67;;;;;8.99;65.86;98907.47;2100614;27;47755;-59
2022/11/22 03:14:39;;;;;;;;;0.33;0.33;;;;;8.99;66.27;98899.53;2100397;27;46423;-61
2022/11/22 03:15:40;;;;;;;;;2.67;1.67;;;;;9.01;65.99;98900.31;2106921;27;46804;-60
2022/11/22 03:16:41;;;;;;;;;1.00;1.00;;;;;9.02;66.01;98887.94;2102791;27;46632;-59
2022/11/22 03:17:42;;;;;;;;;0.67;0.67;;;;;9.01;66.05;98889.72;2106401;27;46954;-60
2022/11/22 03:18:42;;;;;;;;;1.67;1.00;;;;;9.01;66.15;98892.38;2096295;28;46496;-60
2022/11/22 03:19:42;;;;;;;;;0.67;0.67;;;;;9.02;66.12;98899.41;2098200;28;46763;-61
2022/11/22 03:20:43;;;;;;;;;1.00;1.00;;;;;9.02;66.03;98894.13;2100993;27;46800;-60
2022/11/22 03:21:43;;;;;;;;;1.00;1.00;;;;;9.03;66.17;98887.03;2106106;27;46691;-60
2022/11/22 03:22:44;;;;;;;;;0.33;0.33;;;;;9.04;66.30;98883.47;2084326;28;46843;-59
2022/11/22 03:23:44;;;;;;;;;1.33;1.00;;;;;9.03;66.27;98879.97;2086619;28;46785;-61
2022/11/22 03:24:44;;;;;;;;;1.00;0.67;;;;;9.04;66.08;98879.03;2103422;27;46467;-61
2022/11/22 03:25:45;;;;;;;;;1.00;1.00;;;;;9.04;66.29;98886.97;2103492;27;46277;-58
2022/11/22 03:26:47;;;;;;;;;0.33;0.33;;;;;9.05;66.23;98888.69;2102200;27;46133;-59
2022/11/22 03:27:47;;;;;;;;;0.75;0.00;;;;;9.05;66.23;98886.03;2106098;27;46856;-60
2022/11/22 03:28:48;;;;;;;;;1.00;1.00;;;;;9.06;66.24;98889.53;2105370;27;46783;-62
2022/11/22 03:29:49;;;;;;;;;1.67;1.67;;;;;9.06;66.09;98882.47;2102135;27;46601;-60
2022/11/22 03:30:49;;;;;;;;;2.50;1.00;;;;;9.07;66.07;98883.31;2101096;27;46741;-58
2022/11/22 03:31:50;;;;;;;;;1.00;0.00;;;;;9.07;66.22;98884.19;2089859;28;46363;-60
2022/11/22 03:32:50;;;;;;;;;1.00;1.00;;;;;9.09;66.22;98882.31;2087257;28;46557;-62
2022/11/22 03:33:51;;;;;;;;;1.00;1.00;;;;;9.09;66.02;98886.75;2105956;27;46849;-61
2022/11/22 03:34:51;;;;;;;;;2.00;1.00;;;;;9.08;66.30;98875.31;2104120;27;46521;-61
2022/11/22 03:35:57;;;;;;;;;0.00;0.00;;;;;9.08;66.17;98877.09;2108030;27;46446;-61
2022/11/22 03:36:58;;;;;;;;;1.00;1.00;;;;;9.08;66.62;98887.69;2104051;27;46856;-61
2022/11/22 03:37:58;;;;;;;;;1.00;1.00;;;;;9.08;66.24;98879.75;2103049;27;46987;-61
2022/11/22 03:38:58;;;;;;;;;1.00;1.00;;;;;9.08;66.21;98877.09;2105494;27;46448;-60
2022/11/22 03:39:59;;;;;;;;;1.00;1.00;;;;;9.09;65.99;98884.09;2105379;27;46203;-62
2022/11/22 03:40:59;;;;;;;;;1.00;1.00;;;;;9.09;66.23;98884.09;2105632;27;45450;-60
2022/11/22 03:41:59;;;;;;;;;1.00;1.00;;;;;9.09;66.16;98873.53;2107241;27;46778;-60
2022/11/22 03:43:00;;;;;;;;;0.00;0.00;;;;;9.07;66.55;98878.88;2103911;27;46124;-62
2022/11/22 03:44:01;;;;;;;;;2.75;1.00;;;;;9.09;66.31;98878.81;2104927;27;46753;-59
2022/11/22 03:45:01;;;;;;;;;3.00;1.00;;;;;9.09;66.41;98879.69;2103875;27;46169;-60
2022/11/22 03:46:02;;;;;;;;;2.00;1.00;;;;;9.10;66.42;98884.03;2105547;27;45171;-59
2022/11/22 03:47:02;;;;;;;;;1.00;1.00;;;;;9.10;66.58;98881.38;2106293;27;45045;-59
2022/11/22 03:48:02;;;;;;;;;0.33;0.33;;;;;9.12;66.30;98886.63;2111080;27;46836;-60
2022/11/22 03:49:03;;;;;;;;;0.67;0.67;;;;;9.11;66.64;98883.09;2104439;27;46294;-60
2022/11/22 03:50:04;;;;;;;;;3.00;1.00;;;;;9.11;66.59;98884.91;2097267;28;46371;-58
2022/11/22 03:51:05;;;;;;;;;1.00;1.00;;;;;9.12;66.63;98881.31;2095610;28;46598;-60
2022/11/22 03:52:06;;;;;;;;;1.00;1.00;;;;;9.11;66.48;98867.22;2102126;28;46260;-58
2022/11/22 03:53:07;;;;;;;;;1.00;1.00;;;;;9.13;66.44;98883.03;2104024;27;46294;-60
2022/11/22 03:54:07;;;;;;;;;2.25;1.00;;;;;9.14;66.61;98879.47;2103822;27;46531;-59
2022/11/22 03:55:08;;;;;;;;;1.00;1.00;;;;;9.16;66.58;98876.78;2105792;27;46257;-58
2022/11/22 03:56:08;;;;;;;;;1.00;1.00;;;;;9.16;66.27;98880.28;2104820;27;46388;-60
2022/11/22 03:57:09;;;;;;;;;3.00;1.33;;;;;9.17;66.75;98873.19;2106502;27;46640;-58
2022/11/22 03:58:09;;;;;;;;;2.00;1.33;;;;;9.17;66.81;98867.91;2088715;28;46329;-61
2022/11/22 03:59:09;;;;;;;;;1.00;1.00;;;;;9.16;66.13;98869.69;2098132;28;46855;-61
2022/11/22 04:00:11;;;;;;;;;0.33;0.33;;;;;9.18;66.60;98874.91;2101128;28;46630;-60
2022/11/22 04:01:11;;;;;;;;;2.00;2.00;;;;;9.18;66.53;98875.78;2084110;28;46321;-60
2022/11/22 04:02:12;;;;;;;;;1.00;1.00;;;;;9.18;66.40;98867.81;2074609;27;46657;-59
2022/11/22 04:03:12;;;;;;;;;1.00;1.00;;;;;9.19;66.71;98879.28;2106827;27;47097;-59
2022/11/22 04:04:12;;;;;;;;;0.33;0.33;;;;;9.20;66.53;98875.69;2101769;27;46250;-61
2022/11/22 04:05:13;;;;;;;;;0.00;0.00;;;;;9.21;66.64;98880.91;2106424;27;46819;-60
2022/11/22 04:06:13;;;;;;;;;1.00;1.00;;;;;9.22;66.94;98873.81;2089061;28;47042;-59
2022/11/22 04:07:13;;;;;;;;;1.00;1.00;;;;;9.22;66.61;98877.34;2098798;28;46669;-60
2022/11/22 04:08:14;;;;;;;;;2.00;2.00;;;;;9.24;66.65;98872.81;2103787;27;46093;-60
2022/11/22 04:09:14;;;;;;;;;2.00;2.00;;;;;9.24;66.43;98875.47;2105179;27;46799;-59
2022/11/22 04:10:15;;;;;;;;;1.67;1.00;;;;;9.25;66.85;98871.03;2103602;27;46236;-58
2022/11/22 04:11:15;;;;;;;;;1.00;1.00;;;;;9.26;66.45;98875.41;2106928;27;46656;-60
2022/11/22 04:12:15;;;;;;;;;0.33;0.33;;;;;9.25;66.70;98868.38;2103670;27;45484;-59
2022/11/22 04:13:17;;;;;;;;;1.00;1.00;;;;;9.25;66.70;98865.75;2109919;27;46503;-58
2022/11/22 04:15:36;;;;;;;;;0.50;0.50;;;;;9.23;66.76;98859.66;2104450;27;46701;-60
2022/11/22 04:16:36;;;;;;;;;1.00;1.00;;;;;9.23;66.93;98862.31;2103679;27;46330;-61
2022/11/22 04:17:44;;;;;;;;;2.33;1.00;;;;;9.23;66.59;98873.75;2095732;28;46283;-59
2022/11/22 04:18:45;;;;;;;;;2.00;2.00;;;;;9.21;66.70;98867.69;2097109;27;46503;-60
2022/11/22 04:21:32;;;;;;;;;0.67;0.67;;;;;9.21;66.71;98872.97;2104604;27;46270;-60
2022/11/22 04:22:24;;;;;;;;;1.00;1.00;;;;;9.22;66.72;98863.25;2097673;27;46325;-60
2022/11/22 04:23:25;;;;;;;;;2.00;1.00;;;;;9.23;66.73;98871.09;2092876;28;46372;-58
2022/11/22 04:25:47;;;;;;;;;1.75;1.75;;;;;9.25;66.74;98866.59;2102334;27;45835;-59
2022/11/22 04:26:48;;;;;;;;;1.00;1.00;;;;;9.26;66.96;98864.81;2104656;27;46892;-59
2022/11/22 04:27:48;;;;;;;;;1.00;1.00;;;;;9.25;66.82;98863.94;2097638;27;46799;-59
2022/11/22 04:28:48;;;;;;;;;1.00;1.00;;;;;9.25;67.15;98857.81;2090291;28;46751;-59
2022/11/22 04:29:49;;;;;;;;;1.00;0.00;;;;;9.26;67.00;98851.56;2094723;28;46811;-59
2022/11/22 04:33:28;;;;;;;;;2.50;1.25;;;;;9.27;67.27;98851.50;2102358;27;46246;-59
2022/11/22 04:34:28;;;;;;;;;1.00;1.00;;;;;9.28;67.07;98849.75;2103833;27;46771;-60
2022/11/22 04:35:28;;;;;;;;;1.67;1.67;;;;;9.28;67.04;98844.44;2109431;27;46268;-62
2022/11/22 04:36:29;;;;;;;;;1.67;1.00;;;;;9.29;67.11;98856.75;2103630;27;45707;-61
2022/11/22 04:37:29;;;;;;;;;3.00;3.00;;;;;9.28;67.00;98836.50;2105115;27;46289;-60
2022/11/22 04:38:29;;;;;;;;;0.00;0.00;;;;;9.29;67.00;98841.72;2099364;27;46814;-60
2022/11/22 04:39:30;;;;;;;;;0.00;0.00;;;;;9.29;67.49;98840.88;2114158;27;46785;-58
2022/11/22 04:40:32;;;;;;;;;1.00;1.00;;;;;9.30;67.19;98838.16;2111347;27;46611;-60
2022/11/22 04:41:32;;;;;;;;;1.00;1.00;;;;;9.31;67.07;98833.72;2100506;27;46462;-58
2022/11/22 04:45:10;;;;;;;;;0.00;0.00;;;;;9.32;66.96;98833.63;2105930;27;46911;-58
2022/11/22 04:46:11;;;;;;;;;0.00;0.00;;;;;9.32;67.04;98827.50;2103541;28;46537;-61
2022/11/22 04:48:34;;;;;;;;;0.50;0.50;;;;;9.33;67.14;98834.50;2100827;27;46335;-60
2022/11/22 04:49:34;;;;;;;;;3.67;2.00;;;;;9.32;67.11;98828.34;2108999;27;46387;-60
2022/11/22 04:53:14;;;;;;;;;1.00;1.00;;;;;9.35;67.07;98837.94;2108075;27;46407;-60
2022/11/22 04:54:15;;;;;;;;;1.00;1.00;;;;;9.35;67.00;98835.28;2096205;27;46509;-60
2022/11/22 04:55:15;;;;;;;;;0.00;0.00;;;;;9.34;67.17;98836.22;2094290;28;46292;-60
2022/11/22 04:56:16;;;;;;;;;3.00;3.00;;;;;9.33;67.23;98832.72;2089924;28;46173;-61
2022/11/22 04:57:16;;;;;;;;;1.00;1.00;;;;;9.33;67.31;98831.84;2109302;27;46891;-61
2022/11/22 04:58:17;;;;;;;;;1.00;1.00;;;;;9.33;67.19;98830.06;2103912;27;45946;-60
2022/11/22 04:59:17;;;;;;;;;4.00;1.00;;;;;9.34;67.17;98834.41;2106362;27;46455;-60
2022/11/22 05:00:18;;;;;;;;;1.00;1.00;;;;;9.36;67.03;98834.34;2081620;28;46976;-61
2022/11/22 05:01:18;;;;;;;;;3.00;1.00;;;;;9.37;66.99;98844.00;2085801;28;45999;-60
2022/11/22 05:02:18;;;;;;;;;1.33;1.00;;;;;9.36;67.23;98835.19;2096960;27;46380;-60
2022/11/22 05:03:19;;;;;;;;;3.00;1.00;;;;;9.39;67.20;98844.78;2101260;27;50754;-59
2022/11/22 05:04:19;;;;;;;;;3.00;2.00;;;;;9.39;67.17;98845.63;2103211;27;46370;-59
2022/11/22 05:05:19;;;;;;;;;3.00;1.00;;;;;9.41;67.09;98845.59;2106785;27;46650;-59